UUMO

Ostafyevo International Airport

Moscow, Russian Federation
TAF UUMO 180800Z 1809/1818 24008MPS 9999 BKN015 TEMPO 1809/1814 17007G12MPS -SNRA SCT009 BKN015 TEMPO 1814/1818 2000 SHSN BR SCT004 BKN012CB
Issued Valid From Valid To
Jan-18 @ 08:00 UTC
(4 hours ago)
Jan-18 @ 09:00 UTC
(3 hours ago)
Jan-18 @ 18:00 UTC
(in 6 hours)
Jan-18 @ 09:00 to Jan-18 @ 18:00
TAF UUMO 180800Z 1809/1818 24008MPS 9999 BKN015
Wind Visibility Clouds
240° at 16 knots 10,000+ meters
  • Broken at 1,500' AGL
Temporary Jan-18 @ 09:00 to Jan-18 @ 14:00
TEMPO 1809/1814 17007G12MPS -SNRA SCT009 BKN015
Wind Clouds Conditions
170° at 14 knots
 Gusting to 23 knots
  • Scattered at 900' AGL
  • Broken at 1,500' AGL
  • Light Snow
  • Light Rain
Temporary Jan-18 @ 14:00 to Jan-18 @ 18:00
TEMPO 1814/1818 2000 SHSN BR SCT004 BKN012CB
Visibility Clouds Conditions
1,996 meters
  • Scattered at 400' AGL
  • Broken at 1,200' AGL
  • Snow
  • Mist
TAF UUMO 180800Z 1809/1818 24008MPS 9999 BKN015 TEMPO 1809/1814 17007G12MPS -SNRA SCT009 BKN015 TEMPO 1814/1818 2000 SHSN BR SCT004 BKN012CB
Issued Jan-18 @ 08:00 UTC
(4 hours ago)
Valid From Jan-18 @ 09:00 UTC
(3 hours ago)
Valid To Jan-18 @ 18:00 UTC
(in 6 hours)
Jan-18 @ 09:00 - Jan-18 @ 18:00
Wind Visibility
240° at 16 knots 10,000+ meters
Clouds
  • Broken at 1,500' AGL
Temporary Jan-18 @ 09:00 - Jan-18 @ 14:00
Wind
170° at 14 knots
 Gusting to 23 knots
Clouds
  • Scattered at 900' AGL
  • Broken at 1,500' AGL
Conditions
  • Light Snow
  • Light Rain
Temporary Jan-18 @ 14:00 - Jan-18 @ 18:00
Clouds
  • Scattered at 400' AGL
  • Broken at 1,200' AGL
Conditions
  • Snow
  • Mist